sensor_id;sensor_type;location;lat;lon;timestamp;P1;durP1;ratioP1;P2;durP2;ratioP2
7657;SDS011;8462;53.156;8.220;2023-07-31T00:00:38;5.83;;;2.10;;
7657;SDS011;8462;53.156;8.220;2023-07-31T00:03:04;3.83;;;1.97;;
7657;SDS011;8462;53.156;8.220;2023-07-31T00:05:33;6.90;;;2.00;;
7657;SDS011;8462;53.156;8.220;2023-07-31T00:08:00;3.50;;;1.97;;
7657;SDS011;8462;53.156;8.220;2023-07-31T00:10:26;3.17;;;1.63;;
7657;SDS011;8462;53.156;8.220;2023-07-31T00:12:53;4.03;;;1.97;;
7657;SDS011;8462;53.156;8.220;2023-07-31T00:15:20;3.90;;;1.83;;
7657;SDS011;8462;53.156;8.220;2023-07-31T00:17:47;5.77;;;2.13;;
7657;SDS011;8462;53.156;8.220;2023-07-31T00:20:14;5.07;;;2.00;;
7657;SDS011;8462;53.156;8.220;2023-07-31T00:22:42;4.13;;;2.13;;
7657;SDS011;8462;53.156;8.220;2023-07-31T00:25:09;2.67;;;1.50;;
7657;SDS011;8462;53.156;8.220;2023-07-31T00:27:37;2.03;;;1.73;;
7657;SDS011;8462;53.156;8.220;2023-07-31T00:30:04;3.77;;;1.97;;
7657;SDS011;8462;53.156;8.220;2023-07-31T00:32:32;3.17;;;1.63;;
7657;SDS011;8462;53.156;8.220;2023-07-31T00:34:59;2.23;;;1.60;;
7657;SDS011;8462;53.156;8.220;2023-07-31T00:37:25;2.63;;;1.50;;
7657;SDS011;8462;53.156;8.220;2023-07-31T00:39:54;1.67;;;1.50;;
7657;SDS011;8462;53.156;8.220;2023-07-31T00:42:20;2.57;;;1.60;;
7657;SDS011;8462;53.156;8.220;2023-07-31T00:44:47;2.17;;;1.50;;
7657;SDS011;8462;53.156;8.220;2023-07-31T00:47:14;3.30;;;1.50;;
7657;SDS011;8462;53.156;8.220;2023-07-31T00:49:41;2.60;;;1.73;;
7657;SDS011;8462;53.156;8.220;2023-07-31T00:52:08;3.53;;;2.20;;
7657;SDS011;8462;53.156;8.220;2023-07-31T00:54:36;3.13;;;2.23;;
7657;SDS011;8462;53.156;8.220;2023-07-31T00:57:05;2.53;;;1.70;;
7657;SDS011;8462;53.156;8.220;2023-07-31T00:59:33;4.10;;;1.67;;
7657;SDS011;8462;53.156;8.220;2023-07-31T01:02:01;2.97;;;2.10;;
7657;SDS011;8462;53.156;8.220;2023-07-31T01:04:29;3.60;;;2.10;;
7657;SDS011;8462;53.156;8.220;2023-07-31T01:07:00;2.70;;;1.73;;
7657;SDS011;8462;53.156;8.220;2023-07-31T01:09:33;3.60;;;1.77;;
7657;SDS011;8462;53.156;8.220;2023-07-31T01:12:09;3.33;;;2.00;;
7657;SDS011;8462;53.156;8.220;2023-07-31T01:14:40;1.87;;;1.67;;
7657;SDS011;8462;53.156;8.220;2023-07-31T01:17:07;2.33;;;2.00;;
7657;SDS011;8462;53.156;8.220;2023-07-31T01:19:34;2.23;;;1.77;;
7657;SDS011;8462;53.156;8.220;2023-07-31T01:22:12;3.63;;;1.73;;
7657;SDS011;8462;53.156;8.220;2023-07-31T01:24:54;2.53;;;1.90;;
7657;SDS011;8462;53.156;8.220;2023-07-31T01:27:28;2.60;;;1.97;;
7657;SDS011;8462;53.156;8.220;2023-07-31T01:30:00;2.47;;;1.53;;
7657;SDS011;8462;53.156;8.220;2023-07-31T01:32:36;4.13;;;1.90;;
7657;SDS011;8462;53.156;8.220;2023-07-31T01:35:05;3.40;;;1.87;;
7657;SDS011;8462;53.156;8.220;2023-07-31T01:37:32;3.70;;;2.27;;
7657;SDS011;8462;53.156;8.220;2023-07-31T01:40:00;1.73;;;1.50;;
7657;SDS011;8462;53.156;8.220;2023-07-31T01:42:29;3.00;;;1.53;;
7657;SDS011;8462;53.156;8.220;2023-07-31T01:44:56;2.03;;;1.73;;
7657;SDS011;8462;53.156;8.220;2023-07-31T01:47:22;2.27;;;1.80;;
7657;SDS011;8462;53.156;8.220;2023-07-31T01:49:49;3.87;;;2.00;;
7657;SDS011;8462;53.156;8.220;2023-07-31T01:52:16;3.73;;;1.63;;
7657;SDS011;8462;53.156;8.220;2023-07-31T01:54:43;4.30;;;2.27;;
7657;SDS011;8462;53.156;8.220;2023-07-31T01:57:10;3.50;;;2.30;;
7657;SDS011;8462;53.156;8.220;2023-07-31T01:59:38;3.00;;;1.87;;
7657;SDS011;8462;53.156;8.220;2023-07-31T02:02:05;2.17;;;1.83;;
7657;SDS011;8462;53.156;8.220;2023-07-31T02:04:32;3.13;;;2.20;;
7657;SDS011;8462;53.156;8.220;2023-07-31T02:06:59;3.23;;;1.87;;
7657;SDS011;8462;53.156;8.220;2023-07-31T02:09:26;2.43;;;1.70;;
7657;SDS011;8462;53.156;8.220;2023-07-31T02:11:53;3.87;;;2.00;;
7657;SDS011;8462;53.156;8.220;2023-07-31T02:14:20;3.90;;;1.90;;
7657;SDS011;8462;53.156;8.220;2023-07-31T02:16:48;3.10;;;2.00;;
7657;SDS011;8462;53.156;8.220;2023-07-31T02:19:17;4.33;;;2.10;;
7657;SDS011;8462;53.156;8.220;2023-07-31T02:21:44;3.07;;;1.70;;
7657;SDS011;8462;53.156;8.220;2023-07-31T02:24:11;3.97;;;1.83;;
7657;SDS011;8462;53.156;8.220;2023-07-31T02:26:38;2.60;;;1.77;;
7657;SDS011;8462;53.156;8.220;2023-07-31T02:29:05;4.03;;;2.50;;
7657;SDS011;8462;53.156;8.220;2023-07-31T02:31:32;3.03;;;1.87;;
7657;SDS011;8462;53.156;8.220;2023-07-31T02:34:00;2.97;;;2.23;;
7657;SDS011;8462;53.156;8.220;2023-07-31T02:36:27;4.80;;;2.03;;
7657;SDS011;8462;53.156;8.220;2023-07-31T02:38:54;2.53;;;2.00;;
7657;SDS011;8462;53.156;8.220;2023-07-31T02:41:22;2.37;;;2.10;;
7657;SDS011;8462;53.156;8.220;2023-07-31T02:43:49;2.17;;;1.80;;
7657;SDS011;8462;53.156;8.220;2023-07-31T02:46:17;3.60;;;2.23;;
7657;SDS011;8462;53.156;8.220;2023-07-31T02:48:45;3.87;;;2.40;;
7657;SDS011;8462;53.156;8.220;2023-07-31T02:51:13;3.87;;;2.47;;
7657;SDS011;8462;53.156;8.220;2023-07-31T02:53:40;2.47;;;2.27;;
7657;SDS011;8462;53.156;8.220;2023-07-31T02:56:07;2.63;;;2.30;;
7657;SDS011;8462;53.156;8.220;2023-07-31T02:58:34;3.27;;;2.50;;
7657;SDS011;8462;53.156;8.220;2023-07-31T03:01:01;2.63;;;2.40;;
7657;SDS011;8462;53.156;8.220;2023-07-31T03:03:28;3.70;;;2.40;;
7657;SDS011;8462;53.156;8.220;2023-07-31T03:05:55;3.60;;;1.90;;
7657;SDS011;8462;53.156;8.220;2023-07-31T03:08:24;4.07;;;2.77;;
7657;SDS011;8462;53.156;8.220;2023-07-31T03:10:51;2.83;;;2.40;;
7657;SDS011;8462;53.156;8.220;2023-07-31T03:13:18;4.33;;;2.43;;
7657;SDS011;8462;53.156;8.220;2023-07-31T03:15:45;3.87;;;2.50;;
7657;SDS011;8462;53.156;8.220;2023-07-31T03:18:12;3.27;;;2.60;;
7657;SDS011;8462;53.156;8.220;2023-07-31T03:20:41;3.70;;;2.83;;
7657;SDS011;8462;53.156;8.220;2023-07-31T03:23:09;2.90;;;2.27;;
7657;SDS011;8462;53.156;8.220;2023-07-31T03:25:37;2.70;;;2.23;;
7657;SDS011;8462;53.156;8.220;2023-07-31T03:28:05;7.43;;;2.70;;
7657;SDS011;8462;53.156;8.220;2023-07-31T03:30:32;2.80;;;2.50;;
7657;SDS011;8462;53.156;8.220;2023-07-31T03:33:03;3.90;;;2.97;;
7657;SDS011;8462;53.156;8.220;2023-07-31T03:35:30;2.87;;;2.40;;
7657;SDS011;8462;53.156;8.220;2023-07-31T03:37:57;3.13;;;2.30;;
7657;SDS011;8462;53.156;8.220;2023-07-31T03:40:24;3.40;;;2.60;;
7657;SDS011;8462;53.156;8.220;2023-07-31T03:42:52;3.17;;;2.87;;
7657;SDS011;8462;53.156;8.220;2023-07-31T03:45:19;4.20;;;2.40;;
7657;SDS011;8462;53.156;8.220;2023-07-31T03:47:46;4.33;;;3.03;;
7657;SDS011;8462;53.156;8.220;2023-07-31T03:50:12;2.73;;;2.47;;
7657;SDS011;8462;53.156;8.220;2023-07-31T03:52:40;8.50;;;3.57;;
7657;SDS011;8462;53.156;8.220;2023-07-31T03:55:07;4.03;;;3.00;;
7657;SDS011;8462;53.156;8.220;2023-07-31T03:57:34;3.47;;;2.90;;
7657;SDS011;8462;53.156;8.220;2023-07-31T04:00:03;4.63;;;3.20;;
7657;SDS011;8462;53.156;8.220;2023-07-31T04:02:37;4.27;;;2.70;;
7657;SDS011;8462;53.156;8.220;2023-07-31T04:05:04;4.00;;;2.60;;
7657;SDS011;8462;53.156;8.220;2023-07-31T04:07:31;4.23;;;2.77;;
7657;SDS011;8462;53.156;8.220;2023-07-31T04:09:59;2.90;;;2.50;;
7657;SDS011;8462;53.156;8.220;2023-07-31T04:12:26;3.30;;;2.50;;
7657;SDS011;8462;53.156;8.220;2023-07-31T04:14:53;3.47;;;2.53;;
7657;SDS011;8462;53.156;8.220;2023-07-31T04:17:21;2.67;;;2.47;;
7657;SDS011;8462;53.156;8.220;2023-07-31T04:19:48;8.53;;;4.47;;
7657;SDS011;8462;53.156;8.220;2023-07-31T04:22:15;3.00;;;2.70;;
7657;SDS011;8462;53.156;8.220;2023-07-31T04:24:42;3.20;;;2.23;;
7657;SDS011;8462;53.156;8.220;2023-07-31T04:27:08;3.03;;;2.73;;
7657;SDS011;8462;53.156;8.220;2023-07-31T04:29:35;3.97;;;2.43;;
7657;SDS011;8462;53.156;8.220;2023-07-31T04:32:05;4.43;;;2.53;;
7657;SDS011;8462;53.156;8.220;2023-07-31T04:34:33;3.63;;;2.70;;
7657;SDS011;8462;53.156;8.220;2023-07-31T04:37:00;2.00;;;1.50;;
7657;SDS011;8462;53.156;8.220;2023-07-31T04:39:27;2.73;;;1.73;;
7657;SDS011;8462;53.156;8.220;2023-07-31T04:41:54;4.00;;;2.00;;
7657;SDS011;8462;53.156;8.220;2023-07-31T04:44:21;2.07;;;1.77;;
7657;SDS011;8462;53.156;8.220;2023-07-31T04:46:47;2.30;;;1.50;;
7657;SDS011;8462;53.156;8.220;2023-07-31T04:49:14;2.07;;;1.67;;
7657;SDS011;8462;53.156;8.220;2023-07-31T04:51:43;2.27;;;1.70;;
7657;SDS011;8462;53.156;8.220;2023-07-31T04:54:09;1.67;;;1.40;;
7657;SDS011;8462;53.156;8.220;2023-07-31T04:56:37;2.10;;;1.50;;
7657;SDS011;8462;53.156;8.220;2023-07-31T04:59:04;1.80;;;1.33;;
7657;SDS011;8462;53.156;8.220;2023-07-31T05:01:31;4.17;;;2.50;;
7657;SDS011;8462;53.156;8.220;2023-07-31T05:03:58;2.07;;;1.87;;
7657;SDS011;8462;53.156;8.220;2023-07-31T05:06:26;3.13;;;1.67;;
7657;SDS011;8462;53.156;8.220;2023-07-31T05:08:54;1.50;;;1.20;;
7657;SDS011;8462;53.156;8.220;2023-07-31T05:11:21;1.20;;;1.03;;
7657;SDS011;8462;53.156;8.220;2023-07-31T05:13:48;2.03;;;1.30;;
7657;SDS011;8462;53.156;8.220;2023-07-31T05:16:14;1.47;;;1.13;;
7657;SDS011;8462;53.156;8.220;2023-07-31T05:18:41;1.53;;;1.07;;
7657;SDS011;8462;53.156;8.220;2023-07-31T05:21:08;1.10;;;1.00;;
7657;SDS011;8462;53.156;8.220;2023-07-31T05:23:35;1.70;;;1.30;;
7657;SDS011;8462;53.156;8.220;2023-07-31T05:26:04;1.20;;;1.10;;
7657;SDS011;8462;53.156;8.220;2023-07-31T05:28:32;1.20;;;1.10;;
7657;SDS011;8462;53.156;8.220;2023-07-31T05:31:00;1.83;;;0.83;;
7657;SDS011;8462;53.156;8.220;2023-07-31T05:33:27;1.90;;;0.93;;
7657;SDS011;8462;53.156;8.220;2023-07-31T05:35:54;1.13;;;1.07;;
7657;SDS011;8462;53.156;8.220;2023-07-31T05:38:21;2.23;;;1.27;;
7657;SDS011;8462;53.156;8.220;2023-07-31T05:40:48;2.53;;;1.13;;
7657;SDS011;8462;53.156;8.220;2023-07-31T05:43:16;1.20;;;1.10;;
7657;SDS011;8462;53.156;8.220;2023-07-31T05:45:43;1.63;;;1.40;;
7657;SDS011;8462;53.156;8.220;2023-07-31T05:48:10;1.37;;;1.23;;
7657;SDS011;8462;53.156;8.220;2023-07-31T05:50:38;1.17;;;0.87;;
7657;SDS011;8462;53.156;8.220;2023-07-31T05:53:05;1.43;;;0.97;;
7657;SDS011;8462;53.156;8.220;2023-07-31T05:55:33;2.93;;;1.20;;
7657;SDS011;8462;53.156;8.220;2023-07-31T05:58:00;1.57;;;1.20;;
7657;SDS011;8462;53.156;8.220;2023-07-31T06:00:28;2.70;;;1.20;;
7657;SDS011;8462;53.156;8.220;2023-07-31T06:02:55;1.40;;;1.20;;
7657;SDS011;8462;53.156;8.220;2023-07-31T06:05:22;2.60;;;1.00;;
7657;SDS011;8462;53.156;8.220;2023-07-31T06:07:49;1.10;;;1.00;;
7657;SDS011;8462;53.156;8.220;2023-07-31T06:10:16;1.30;;;1.00;;
7657;SDS011;8462;53.156;8.220;2023-07-31T06:12:43;2.57;;;2.10;;
7657;SDS011;8462;53.156;8.220;2023-07-31T06:15:10;1.30;;;1.20;;
7657;SDS011;8462;53.156;8.220;2023-07-31T06:17:38;2.07;;;1.20;;
7657;SDS011;8462;53.156;8.220;2023-07-31T06:20:06;1.23;;;1.10;;
7657;SDS011;8462;53.156;8.220;2023-07-31T06:22:33;1.00;;;0.90;;
7657;SDS011;8462;53.156;8.220;2023-07-31T06:25:00;1.30;;;0.80;;
7657;SDS011;8462;53.156;8.220;2023-07-31T06:27:27;0.87;;;0.70;;
7657;SDS011;8462;53.156;8.220;2023-07-31T06:29:54;0.60;;;0.60;;
7657;SDS011;8462;53.156;8.220;2023-07-31T06:32:21;1.07;;;0.90;;
7657;SDS011;8462;53.156;8.220;2023-07-31T06:34:50;1.10;;;0.90;;
7657;SDS011;8462;53.156;8.220;2023-07-31T06:37:17;0.83;;;0.73;;
7657;SDS011;8462;53.156;8.220;2023-07-31T06:39:43;1.40;;;0.80;;
7657;SDS011;8462;53.156;8.220;2023-07-31T06:42:10;1.13;;;0.83;;
7657;SDS011;8462;53.156;8.220;2023-07-31T06:44:37;2.03;;;1.10;;
7657;SDS011;8462;53.156;8.220;2023-07-31T06:47:04;2.23;;;1.70;;
7657;SDS011;8462;53.156;8.220;2023-07-31T06:49:32;1.13;;;0.90;;
7657;SDS011;8462;53.156;8.220;2023-07-31T06:52:01;2.23;;;1.40;;
7657;SDS011;8462;53.156;8.220;2023-07-31T06:54:28;0.70;;;0.70;;
7657;SDS011;8462;53.156;8.220;2023-07-31T06:56:57;1.03;;;0.93;;
7657;SDS011;8462;53.156;8.220;2023-07-31T06:59:24;2.60;;;1.10;;
7657;SDS011;8462;53.156;8.220;2023-07-31T07:01:51;0.70;;;0.70;;
7657;SDS011;8462;53.156;8.220;2023-07-31T07:04:18;1.40;;;0.97;;
7657;SDS011;8462;53.156;8.220;2023-07-31T07:06:45;2.93;;;0.97;;
7657;SDS011;8462;53.156;8.220;2023-07-31T07:09:13;0.73;;;0.60;;
7657;SDS011;8462;53.156;8.220;2023-07-31T07:11:41;1.23;;;0.80;;
7657;SDS011;8462;53.156;8.220;2023-07-31T07:14:09;1.17;;;0.90;;
7657;SDS011;8462;53.156;8.220;2023-07-31T07:16:36;3.73;;;0.90;;
7657;SDS011;8462;53.156;8.220;2023-07-31T07:19:07;0.97;;;0.80;;
7657;SDS011;8462;53.156;8.220;2023-07-31T07:21:34;1.80;;;1.07;;
7657;SDS011;8462;53.156;8.220;2023-07-31T07:24:01;1.17;;;0.90;;
7657;SDS011;8462;53.156;8.220;2023-07-31T07:26:29;1.50;;;0.90;;
7657;SDS011;8462;53.156;8.220;2023-07-31T07:28:56;2.43;;;0.90;;
7657;SDS011;8462;53.156;8.220;2023-07-31T07:31:26;2.27;;;1.50;;
7657;SDS011;8462;53.156;8.220;2023-07-31T07:33:53;3.23;;;1.83;;
7657;SDS011;8462;53.156;8.220;2023-07-31T07:36:20;3.93;;;2.30;;
7657;SDS011;8462;53.156;8.220;2023-07-31T07:38:48;5.00;;;2.80;;
7657;SDS011;8462;53.156;8.220;2023-07-31T07:41:15;6.57;;;2.97;;
7657;SDS011;8462;53.156;8.220;2023-07-31T07:43:44;8.17;;;2.90;;
7657;SDS011;8462;53.156;8.220;2023-07-31T07:46:11;7.27;;;3.50;;
7657;SDS011;8462;53.156;8.220;2023-07-31T07:48:38;7.80;;;3.47;;
7657;SDS011;8462;53.156;8.220;2023-07-31T07:51:04;11.23;;;3.63;;
7657;SDS011;8462;53.156;8.220;2023-07-31T07:53:32;5.80;;;3.57;;
7657;SDS011;8462;53.156;8.220;2023-07-31T07:56:00;9.33;;;4.03;;
7657;SDS011;8462;53.156;8.220;2023-07-31T07:58:27;7.20;;;4.33;;
7657;SDS011;8462;53.156;8.220;2023-07-31T08:00:56;10.53;;;4.30;;
7657;SDS011;8462;53.156;8.220;2023-07-31T08:03:23;10.33;;;5.40;;
7657;SDS011;8462;53.156;8.220;2023-07-31T08:05:50;10.87;;;4.83;;
7657;SDS011;8462;53.156;8.220;2023-07-31T08:08:17;12.03;;;4.70;;
7657;SDS011;8462;53.156;8.220;2023-07-31T08:10:45;9.47;;;4.67;;
7657;SDS011;8462;53.156;8.220;2023-07-31T08:13:12;9.23;;;4.67;;
7657;SDS011;8462;53.156;8.220;2023-07-31T08:15:40;11.10;;;5.50;;
7657;SDS011;8462;53.156;8.220;2023-07-31T08:21:52;6.97;;;4.67;;
7657;SDS011;8462;53.156;8.220;2023-07-31T08:24:19;8.93;;;5.17;;
7657;SDS011;8462;53.156;8.220;2023-07-31T08:29:16;11.03;;;5.60;;
7657;SDS011;8462;53.156;8.220;2023-07-31T08:31:43;10.97;;;5.77;;
7657;SDS011;8462;53.156;8.220;2023-07-31T08:34:09;11.13;;;5.53;;
7657;SDS011;8462;53.156;8.220;2023-07-31T08:36:36;13.37;;;6.03;;
7657;SDS011;8462;53.156;8.220;2023-07-31T08:39:04;11.70;;;5.83;;
7657;SDS011;8462;53.156;8.220;2023-07-31T08:41:31;14.20;;;5.23;;
7657;SDS011;8462;53.156;8.220;2023-07-31T08:44:04;7.97;;;5.43;;
7657;SDS011;8462;53.156;8.220;2023-07-31T08:46:31;13.83;;;5.47;;
7657;SDS011;8462;53.156;8.220;2023-07-31T08:48:59;12.50;;;5.67;;
7657;SDS011;8462;53.156;8.220;2023-07-31T08:51:30;11.67;;;5.27;;
7657;SDS011;8462;53.156;8.220;2023-07-31T08:53:57;9.37;;;5.07;;
7657;SDS011;8462;53.156;8.220;2023-07-31T08:56:25;9.17;;;4.53;;
7657;SDS011;8462;53.156;8.220;2023-07-31T08:58:53;7.90;;;5.07;;
7657;SDS011;8462;53.156;8.220;2023-07-31T09:01:21;8.97;;;5.60;;
7657;SDS011;8462;53.156;8.220;2023-07-31T09:03:49;9.37;;;4.60;;
7657;SDS011;8462;53.156;8.220;2023-07-31T09:06:19;8.60;;;4.10;;
7657;SDS011;8462;53.156;8.220;2023-07-31T09:08:49;8.53;;;4.30;;
7657;SDS011;8462;53.156;8.220;2023-07-31T09:11:17;9.73;;;4.50;;
7657;SDS011;8462;53.156;8.220;2023-07-31T09:13:46;10.77;;;4.53;;
7657;SDS011;8462;53.156;8.220;2023-07-31T09:16:14;9.63;;;4.13;;
7657;SDS011;8462;53.156;8.220;2023-07-31T09:18:52;7.53;;;4.00;;
7657;SDS011;8462;53.156;8.220;2023-07-31T09:21:22;7.77;;;4.20;;
7657;SDS011;8462;53.156;8.220;2023-07-31T09:23:49;7.57;;;4.40;;
7657;SDS011;8462;53.156;8.220;2023-07-31T09:26:28;7.00;;;4.43;;
7657;SDS011;8462;53.156;8.220;2023-07-31T09:28:57;6.67;;;4.10;;
7657;SDS011;8462;53.156;8.220;2023-07-31T09:34:16;5.60;;;4.00;;
7657;SDS011;8462;53.156;8.220;2023-07-31T09:36:44;7.80;;;4.50;;
7657;SDS011;8462;53.156;8.220;2023-07-31T09:39:12;6.40;;;3.93;;
7657;SDS011;8462;53.156;8.220;2023-07-31T09:41:41;9.83;;;3.73;;
7657;SDS011;8462;53.156;8.220;2023-07-31T09:44:11;9.13;;;4.37;;
7657;SDS011;8462;53.156;8.220;2023-07-31T09:46:38;5.67;;;3.10;;
7657;SDS011;8462;53.156;8.220;2023-07-31T09:49:07;6.07;;;3.87;;
7657;SDS011;8462;53.156;8.220;2023-07-31T09:51:35;6.93;;;3.90;;
7657;SDS011;8462;53.156;8.220;2023-07-31T09:54:15;7.70;;;3.63;;
7657;SDS011;8462;53.156;8.220;2023-07-31T09:56:43;6.27;;;3.40;;
7657;SDS011;8462;53.156;8.220;2023-07-31T09:59:13;4.30;;;2.87;;
7657;SDS011;8462;53.156;8.220;2023-07-31T10:01:42;4.47;;;2.87;;
7657;SDS011;8462;53.156;8.220;2023-07-31T10:04:10;4.07;;;2.57;;
7657;SDS011;8462;53.156;8.220;2023-07-31T10:06:38;6.50;;;3.10;;
7657;SDS011;8462;53.156;8.220;2023-07-31T10:09:07;3.73;;;2.50;;
7657;SDS011;8462;53.156;8.220;2023-07-31T10:11:37;4.00;;;2.30;;
7657;SDS011;8462;53.156;8.220;2023-07-31T10:14:07;5.00;;;2.77;;
7657;SDS011;8462;53.156;8.220;2023-07-31T10:16:37;3.30;;;2.30;;
7657;SDS011;8462;53.156;8.220;2023-07-31T10:19:08;4.33;;;1.90;;
7657;SDS011;8462;53.156;8.220;2023-07-31T10:21:36;2.90;;;2.00;;
7657;SDS011;8462;53.156;8.220;2023-07-31T10:24:04;3.23;;;1.80;;
7657;SDS011;8462;53.156;8.220;2023-07-31T10:26:31;4.33;;;2.20;;
7657;SDS011;8462;53.156;8.220;2023-07-31T10:29:00;2.90;;;2.30;;
7657;SDS011;8462;53.156;8.220;2023-07-31T10:31:29;2.40;;;1.67;;
7657;SDS011;8462;53.156;8.220;2023-07-31T10:33:58;2.80;;;1.97;;
7657;SDS011;8462;53.156;8.220;2023-07-31T10:36:28;1.73;;;1.60;;
7657;SDS011;8462;53.156;8.220;2023-07-31T10:38:55;1.90;;;1.63;;
7657;SDS011;8462;53.156;8.220;2023-07-31T10:41:30;3.00;;;2.00;;
7657;SDS011;8462;53.156;8.220;2023-07-31T10:43:57;3.00;;;1.90;;
7657;SDS011;8462;53.156;8.220;2023-07-31T10:46:26;2.00;;;1.80;;
7657;SDS011;8462;53.156;8.220;2023-07-31T10:49:00;2.40;;;1.47;;
7657;SDS011;8462;53.156;8.220;2023-07-31T10:51:37;1.80;;;1.60;;
7657;SDS011;8462;53.156;8.220;2023-07-31T10:54:10;2.43;;;1.53;;
7657;SDS011;8462;53.156;8.220;2023-07-31T10:56:39;1.30;;;1.20;;
7657;SDS011;8462;53.156;8.220;2023-07-31T10:59:07;1.40;;;1.30;;
7657;SDS011;8462;53.156;8.220;2023-07-31T11:01:50;1.53;;;1.40;;
7657;SDS011;8462;53.156;8.220;2023-07-31T11:04:23;3.47;;;1.50;;
7657;SDS011;8462;53.156;8.220;2023-07-31T11:06:57;2.97;;;1.13;;
7657;SDS011;8462;53.156;8.220;2023-07-31T11:09:25;1.47;;;1.23;;
7657;SDS011;8462;53.156;8.220;2023-07-31T11:11:55;1.13;;;1.03;;
7657;SDS011;8462;53.156;8.220;2023-07-31T11:14:22;1.80;;;1.17;;
7657;SDS011;8462;53.156;8.220;2023-07-31T11:16:50;1.67;;;1.33;;
7657;SDS011;8462;53.156;8.220;2023-07-31T11:19:22;1.73;;;1.33;;
7657;SDS011;8462;53.156;8.220;2023-07-31T11:21:51;1.47;;;1.20;;
7657;SDS011;8462;53.156;8.220;2023-07-31T11:24:19;1.20;;;0.93;;
7657;SDS011;8462;53.156;8.220;2023-07-31T11:26:50;1.83;;;1.30;;
7657;SDS011;8462;53.156;8.220;2023-07-31T11:29:18;1.80;;;1.10;;
7657;SDS011;8462;53.156;8.220;2023-07-31T11:31:46;2.50;;;0.80;;
7657;SDS011;8462;53.156;8.220;2023-07-31T11:34:14;2.90;;;1.27;;
7657;SDS011;8462;53.156;8.220;2023-07-31T11:36:53;2.27;;;1.30;;
7657;SDS011;8462;53.156;8.220;2023-07-31T11:39:21;1.30;;;1.10;;
7657;SDS011;8462;53.156;8.220;2023-07-31T11:41:48;1.50;;;1.17;;
7657;SDS011;8462;53.156;8.220;2023-07-31T11:44:15;2.97;;;1.57;;
7657;SDS011;8462;53.156;8.220;2023-07-31T11:46:44;1.37;;;1.27;;
7657;SDS011;8462;53.156;8.220;2023-07-31T11:49:11;1.27;;;1.17;;
7657;SDS011;8462;53.156;8.220;2023-07-31T11:51:38;3.13;;;1.03;;
7657;SDS011;8462;53.156;8.220;2023-07-31T11:54:06;0.90;;;0.90;;
7657;SDS011;8462;53.156;8.220;2023-07-31T11:56:33;1.27;;;1.13;;
7657;SDS011;8462;53.156;8.220;2023-07-31T11:59:00;2.10;;;1.27;;
7657;SDS011;8462;53.156;8.220;2023-07-31T12:01:30;1.80;;;1.20;;
7657;SDS011;8462;53.156;8.220;2023-07-31T12:03:58;1.20;;;1.10;;
7657;SDS011;8462;53.156;8.220;2023-07-31T12:06:35;2.27;;;1.20;;
7657;SDS011;8462;53.156;8.220;2023-07-31T12:09:03;1.67;;;1.20;;
7657;SDS011;8462;53.156;8.220;2023-07-31T12:11:31;1.57;;;1.47;;
7657;SDS011;8462;53.156;8.220;2023-07-31T12:14:10;1.23;;;1.03;;
7657;SDS011;8462;53.156;8.220;2023-07-31T12:16:47;2.30;;;1.20;;
7657;SDS011;8462;53.156;8.220;2023-07-31T12:19:19;1.10;;;1.00;;
7657;SDS011;8462;53.156;8.220;2023-07-31T12:21:46;2.40;;;1.70;;
7657;SDS011;8462;53.156;8.220;2023-07-31T12:24:14;1.00;;;0.87;;
7657;SDS011;8462;53.156;8.220;2023-07-31T12:26:44;2.30;;;0.90;;
7657;SDS011;8462;53.156;8.220;2023-07-31T12:29:12;1.90;;;1.27;;
7657;SDS011;8462;53.156;8.220;2023-07-31T12:31:40;1.80;;;1.00;;
7657;SDS011;8462;53.156;8.220;2023-07-31T12:34:15;1.77;;;1.23;;
7657;SDS011;8462;53.156;8.220;2023-07-31T12:36:43;1.27;;;1.17;;
7657;SDS011;8462;53.156;8.220;2023-07-31T12:39:10;2.97;;;1.30;;
7657;SDS011;8462;53.156;8.220;2023-07-31T12:41:37;1.33;;;1.20;;
7657;SDS011;8462;53.156;8.220;2023-07-31T12:44:05;1.43;;;1.33;;
7657;SDS011;8462;53.156;8.220;2023-07-31T12:46:32;1.30;;;1.20;;
7657;SDS011;8462;53.156;8.220;2023-07-31T12:48:59;1.00;;;0.93;;
7657;SDS011;8462;53.156;8.220;2023-07-31T12:51:26;2.47;;;1.17;;
7657;SDS011;8462;53.156;8.220;2023-07-31T12:53:53;1.40;;;1.30;;
7657;SDS011;8462;53.156;8.220;2023-07-31T12:56:20;1.73;;;1.40;;
7657;SDS011;8462;53.156;8.220;2023-07-31T12:58:47;2.23;;;1.30;;
7657;SDS011;8462;53.156;8.220;2023-07-31T13:01:15;2.03;;;1.00;;
7657;SDS011;8462;53.156;8.220;2023-07-31T13:03:42;1.33;;;1.20;;
7657;SDS011;8462;53.156;8.220;2023-07-31T13:06:09;1.33;;;1.23;;
7657;SDS011;8462;53.156;8.220;2023-07-31T13:08:36;1.07;;;1.00;;
7657;SDS011;8462;53.156;8.220;2023-07-31T13:11:03;1.53;;;1.20;;
7657;SDS011;8462;53.156;8.220;2023-07-31T13:13:30;1.30;;;1.20;;
7657;SDS011;8462;53.156;8.220;2023-07-31T13:15:57;1.27;;;1.13;;
7657;SDS011;8462;53.156;8.220;2023-07-31T13:18:26;2.07;;;1.40;;
7657;SDS011;8462;53.156;8.220;2023-07-31T13:20:54;1.80;;;1.30;;
7657;SDS011;8462;53.156;8.220;2023-07-31T13:23:20;5.47;;;3.20;;
7657;SDS011;8462;53.156;8.220;2023-07-31T13:25:47;1.70;;;1.40;;
7657;SDS011;8462;53.156;8.220;2023-07-31T13:28:14;3.00;;;1.70;;
7657;SDS011;8462;53.156;8.220;2023-07-31T13:30:41;3.53;;;1.30;;
7657;SDS011;8462;53.156;8.220;2023-07-31T13:33:08;1.27;;;1.17;;
7657;SDS011;8462;53.156;8.220;2023-07-31T13:35:37;2.03;;;1.30;;
7657;SDS011;8462;53.156;8.220;2023-07-31T13:38:04;2.23;;;1.60;;
7657;SDS011;8462;53.156;8.220;2023-07-31T13:40:34;2.43;;;1.70;;
7657;SDS011;8462;53.156;8.220;2023-07-31T13:43:01;1.93;;;1.73;;
7657;SDS011;8462;53.156;8.220;2023-07-31T13:45:28;2.60;;;2.00;;
7657;SDS011;8462;53.156;8.220;2023-07-31T13:47:55;2.47;;;2.00;;
7657;SDS011;8462;53.156;8.220;2023-07-31T13:50:22;2.20;;;1.80;;
7657;SDS011;8462;53.156;8.220;2023-07-31T13:52:51;4.97;;;2.10;;
7657;SDS011;8462;53.156;8.220;2023-07-31T13:55:19;2.70;;;1.87;;
7657;SDS011;8462;53.156;8.220;2023-07-31T13:57:46;3.43;;;2.10;;
7657;SDS011;8462;53.156;8.220;2023-07-31T14:00:14;2.80;;;2.33;;
7657;SDS011;8462;53.156;8.220;2023-07-31T14:02:41;4.23;;;2.37;;
7657;SDS011;8462;53.156;8.220;2023-07-31T14:05:08;6.50;;;3.00;;
7657;SDS011;8462;53.156;8.220;2023-07-31T14:07:36;3.77;;;2.27;;
7657;SDS011;8462;53.156;8.220;2023-07-31T14:10:07;2.03;;;1.83;;
7657;SDS011;8462;53.156;8.220;2023-07-31T14:12:35;3.13;;;2.20;;
7657;SDS011;8462;53.156;8.220;2023-07-31T14:15:02;2.87;;;1.87;;
7657;SDS011;8462;53.156;8.220;2023-07-31T14:17:29;1.20;;;1.00;;
7657;SDS011;8462;53.156;8.220;2023-07-31T14:19:56;0.60;;;0.60;;
7657;SDS011;8462;53.156;8.220;2023-07-31T14:22:27;1.30;;;0.80;;
7657;SDS011;8462;53.156;8.220;2023-07-31T14:24:55;1.53;;;0.60;;
7657;SDS011;8462;53.156;8.220;2023-07-31T14:27:23;1.33;;;0.67;;
7657;SDS011;8462;53.156;8.220;2023-07-31T14:29:57;0.63;;;0.60;;
7657;SDS011;8462;53.156;8.220;2023-07-31T14:32:24;2.73;;;0.90;;
7657;SDS011;8462;53.156;8.220;2023-07-31T14:34:50;1.13;;;0.90;;
7657;SDS011;8462;53.156;8.220;2023-07-31T14:37:18;1.53;;;1.20;;
7657;SDS011;8462;53.156;8.220;2023-07-31T14:39:45;2.00;;;1.80;;
7657;SDS011;8462;53.156;8.220;2023-07-31T14:42:12;2.63;;;1.70;;
7657;SDS011;8462;53.156;8.220;2023-07-31T14:44:42;3.80;;;1.70;;
7657;SDS011;8462;53.156;8.220;2023-07-31T14:47:09;1.90;;;1.53;;
7657;SDS011;8462;53.156;8.220;2023-07-31T14:49:38;3.07;;;1.90;;
7657;SDS011;8462;53.156;8.220;2023-07-31T14:52:05;2.20;;;1.63;;
7657;SDS011;8462;53.156;8.220;2023-07-31T14:54:33;1.63;;;1.33;;
7657;SDS011;8462;53.156;8.220;2023-07-31T14:57:02;2.70;;;1.50;;
7657;SDS011;8462;53.156;8.220;2023-07-31T14:59:29;7.47;;;4.03;;
7657;SDS011;8462;53.156;8.220;2023-07-31T15:01:57;2.53;;;1.70;;
7657;SDS011;8462;53.156;8.220;2023-07-31T15:04:24;3.20;;;1.50;;
7657;SDS011;8462;53.156;8.220;2023-07-31T15:06:53;2.40;;;1.63;;
7657;SDS011;8462;53.156;8.220;2023-07-31T15:09:21;2.07;;;1.33;;
7657;SDS011;8462;53.156;8.220;2023-07-31T15:11:47;2.53;;;1.13;;
7657;SDS011;8462;53.156;8.220;2023-07-31T15:14:15;2.17;;;1.50;;
7657;SDS011;8462;53.156;8.220;2023-07-31T15:16:42;2.17;;;1.80;;
7657;SDS011;8462;53.156;8.220;2023-07-31T15:19:10;2.17;;;1.97;;
7657;SDS011;8462;53.156;8.220;2023-07-31T15:21:37;4.93;;;2.83;;
7657;SDS011;8462;53.156;8.220;2023-07-31T15:24:04;4.17;;;2.10;;
7657;SDS011;8462;53.156;8.220;2023-07-31T15:26:31;4.70;;;2.77;;
7657;SDS011;8462;53.156;8.220;2023-07-31T15:29:00;3.30;;;2.20;;